sensor_id;sensor_type;location;lat;lon;timestamp;pressure;altitude;pressure_sealevel;temperature;humidity
35989;BME280;22064;42.672;23.282;2024-02-28T00:00:44;94998.75;;;6.67;88.31
35989;BME280;22064;42.672;23.282;2024-02-28T00:03:11;95000.63;;;6.49;92.01
35989;BME280;22064;42.672;23.282;2024-02-28T00:05:37;94996.34;;;6.26;92.56
35989;BME280;22064;42.672;23.282;2024-02-28T00:08:03;94996.78;;;6.35;92.99
35989;BME280;22064;42.672;23.282;2024-02-28T00:10:29;95004.94;;;6.83;86.53
35989;BME280;22064;42.672;23.282;2024-02-28T00:12:55;95004.13;;;6.60;87.90
35989;BME280;22064;42.672;23.282;2024-02-28T00:15:22;95008.06;;;6.41;92.43
35989;BME280;22064;42.672;23.282;2024-02-28T00:17:52;95006.63;;;6.50;91.60
35989;BME280;22064;42.672;23.282;2024-02-28T00:20:20;95008.56;;;6.60;90.43
35989;BME280;22064;42.672;23.282;2024-02-28T00:22:46;95006.09;;;6.70;86.67
35989;BME280;22064;42.672;23.282;2024-02-28T00:25:13;95006.53;;;6.84;85.53
35989;BME280;22064;42.672;23.282;2024-02-28T00:27:40;95005.41;;;6.58;89.03
35989;BME280;22064;42.672;23.282;2024-02-28T00:30:06;95009.28;;;6.77;89.40
35989;BME280;22064;42.672;23.282;2024-02-28T00:32:32;95009.78;;;6.74;89.05
35989;BME280;22064;42.672;23.282;2024-02-28T00:34:59;95004.03;;;6.94;86.83
35989;BME280;22064;42.672;23.282;2024-02-28T00:37:25;95001.84;;;6.86;85.88
35989;BME280;22064;42.672;23.282;2024-02-28T00:39:51;94997.75;;;6.51;90.33
35989;BME280;22064;42.672;23.282;2024-02-28T00:42:17;95000.50;;;6.61;90.96
35989;BME280;22064;42.672;23.282;2024-02-28T00:44:43;95003.88;;;6.62;91.25
35989;BME280;22064;42.672;23.282;2024-02-28T00:47:09;95005.50;;;6.85;86.66
35989;BME280;22064;42.672;23.282;2024-02-28T00:49:35;95005.56;;;6.90;84.78
35989;BME280;22064;42.672;23.282;2024-02-28T00:52:01;95005.50;;;6.46;87.88
35989;BME280;22064;42.672;23.282;2024-02-28T00:54:27;95006.00;;;6.26;89.77
35989;BME280;22064;42.672;23.282;2024-02-28T00:56:53;95002.41;;;5.76;96.50
35989;BME280;22064;42.672;23.282;2024-02-28T00:59:19;95009.16;;;5.44;100.00
35989;BME280;22064;42.672;23.282;2024-02-28T01:01:45;95013.19;;;5.34;100.00
35989;BME280;22064;42.672;23.282;2024-02-28T01:04:14;95010.09;;;5.09;100.00
35989;BME280;22064;42.672;23.282;2024-02-28T01:06:41;95026.53;;;5.09;100.00
35989;BME280;22064;42.672;23.282;2024-02-28T01:09:08;95019.13;;;5.18;100.00
35989;BME280;22064;42.672;23.282;2024-02-28T01:11:34;95019.66;;;4.92;100.00
35989;BME280;22064;42.672;23.282;2024-02-28T01:14:00;95015.13;;;4.87;100.00
35989;BME280;22064;42.672;23.282;2024-02-28T01:16:26;95009.25;;;4.92;100.00
35989;BME280;22064;42.672;23.282;2024-02-28T01:18:53;95011.84;;;5.03;100.00
35989;BME280;22064;42.672;23.282;2024-02-28T01:21:19;95022.94;;;4.99;100.00
35989;BME280;22064;42.672;23.282;2024-02-28T01:23:47;95014.56;;;4.97;100.00
35989;BME280;22064;42.672;23.282;2024-02-28T01:26:13;95022.28;;;5.20;100.00
35989;BME280;22064;42.672;23.282;2024-02-28T01:28:38;95010.00;;;5.32;100.00
35989;BME280;22064;42.672;23.282;2024-02-28T01:31:05;95009.97;;;5.61;100.00
35989;BME280;22064;42.672;23.282;2024-02-28T01:33:31;95021.13;;;5.90;100.00
35989;BME280;22064;42.672;23.282;2024-02-28T01:35:58;95020.78;;;5.87;100.00
35989;BME280;22064;42.672;23.282;2024-02-28T01:38:26;95024.91;;;6.16;100.00
35989;BME280;22064;42.672;23.282;2024-02-28T01:40:54;95019.00;;;6.38;96.57
35989;BME280;22064;42.672;23.282;2024-02-28T01:43:20;95015.72;;;6.30;94.97
35989;BME280;22064;42.672;23.282;2024-02-28T01:45:45;95024.44;;;6.02;99.90
35989;BME280;22064;42.672;23.282;2024-02-28T01:48:12;95020.16;;;6.13;98.96
35989;BME280;22064;42.672;23.282;2024-02-28T01:50:40;95026.38;;;6.46;93.63
35989;BME280;22064;42.672;23.282;2024-02-28T01:53:09;95024.53;;;6.24;94.66
35989;BME280;22064;42.672;23.282;2024-02-28T01:55:39;95031.31;;;6.25;95.99
35989;BME280;22064;42.672;23.282;2024-02-28T01:58:06;95027.69;;;6.43;93.84
35989;BME280;22064;42.672;23.282;2024-02-28T02:00:33;95030.63;;;6.69;89.29
35989;BME280;22064;42.672;23.282;2024-02-28T02:03:01;95025.69;;;6.72;87.71
35989;BME280;22064;42.672;23.282;2024-02-28T02:05:29;95031.97;;;6.71;86.94
35989;BME280;22064;42.672;23.282;2024-02-28T02:07:57;95039.34;;;6.58;89.03
35989;BME280;22064;42.672;23.282;2024-02-28T02:10:23;95024.34;;;6.70;86.98
35989;BME280;22064;42.672;23.282;2024-02-28T02:12:49;95032.16;;;6.87;85.44
35989;BME280;22064;42.672;23.282;2024-02-28T02:15:16;95031.72;;;6.95;84.00
35989;BME280;22064;42.672;23.282;2024-02-28T02:17:43;95027.53;;;6.94;84.95
35989;BME280;22064;42.672;23.282;2024-02-28T02:20:10;95023.66;;;6.96;85.36
35989;BME280;22064;42.672;23.282;2024-02-28T02:22:38;95018.47;;;7.02;84.41
35989;BME280;22064;42.672;23.282;2024-02-28T02:25:04;95021.44;;;7.10;81.87
35989;BME280;22064;42.672;23.282;2024-02-28T02:27:32;95025.63;;;7.11;81.57
35989;BME280;22064;42.672;23.282;2024-02-28T02:29:58;95024.81;;;7.06;81.68
35989;BME280;22064;42.672;23.282;2024-02-28T02:32:23;95025.44;;;6.74;85.09
35989;BME280;22064;42.672;23.282;2024-02-28T02:34:49;95017.09;;;6.72;87.23
35989;BME280;22064;42.672;23.282;2024-02-28T02:37:16;95031.88;;;6.66;87.90
35989;BME280;22064;42.672;23.282;2024-02-28T02:39:41;95020.72;;;6.15;93.46
35989;BME280;22064;42.672;23.282;2024-02-28T02:42:08;95031.38;;;5.80;100.00
35989;BME280;22064;42.672;23.282;2024-02-28T02:44:34;95031.00;;;6.05;100.00
35989;BME280;22064;42.672;23.282;2024-02-28T02:47:01;95032.41;;;6.29;97.60
35989;BME280;22064;42.672;23.282;2024-02-28T02:49:27;95035.34;;;6.50;93.78
35989;BME280;22064;42.672;23.282;2024-02-28T02:51:53;95031.50;;;6.58;92.08
35989;BME280;22064;42.672;23.282;2024-02-28T02:54:20;95037.94;;;6.50;92.87
35989;BME280;22064;42.672;23.282;2024-02-28T02:56:47;95030.00;;;6.62;90.81
35989;BME280;22064;42.672;23.282;2024-02-28T02:59:13;95036.19;;;6.56;91.79
35989;BME280;22064;42.672;23.282;2024-02-28T03:01:40;95033.94;;;6.64;90.88
35989;BME280;22064;42.672;23.282;2024-02-28T03:04:06;95028.88;;;6.74;88.72
35989;BME280;22064;42.672;23.282;2024-02-28T03:06:32;95027.34;;;6.79;88.06
35989;BME280;22064;42.672;23.282;2024-02-28T03:09:01;95023.94;;;6.78;87.77
35989;BME280;22064;42.672;23.282;2024-02-28T03:11:29;95025.94;;;6.71;86.72
35989;BME280;22064;42.672;23.282;2024-02-28T03:13:55;95027.16;;;6.63;87.49
35989;BME280;22064;42.672;23.282;2024-02-28T03:16:23;95031.47;;;6.02;97.73
35989;BME280;22064;42.672;23.282;2024-02-28T03:18:53;95036.13;;;5.66;100.00
35989;BME280;22064;42.672;23.282;2024-02-28T03:21:23;95021.91;;;5.57;100.00
35989;BME280;22064;42.672;23.282;2024-02-28T03:23:50;95037.16;;;5.36;100.00
35989;BME280;22064;42.672;23.282;2024-02-28T03:26:16;95036.94;;;5.38;100.00
35989;BME280;22064;42.672;23.282;2024-02-28T03:28:42;95032.09;;;5.01;100.00
35989;BME280;22064;42.672;23.282;2024-02-28T03:31:09;95038.50;;;5.10;100.00
35989;BME280;22064;42.672;23.282;2024-02-28T03:33:35;95036.34;;;5.65;100.00
35989;BME280;22064;42.672;23.282;2024-02-28T03:36:01;95044.59;;;5.90;100.00
35989;BME280;22064;42.672;23.282;2024-02-28T03:38:28;95042.50;;;5.58;100.00
35989;BME280;22064;42.672;23.282;2024-02-28T03:40:54;95052.16;;;5.29;100.00
35989;BME280;22064;42.672;23.282;2024-02-28T03:43:19;95042.09;;;5.21;100.00
35989;BME280;22064;42.672;23.282;2024-02-28T03:45:45;95058.38;;;5.28;100.00
35989;BME280;22064;42.672;23.282;2024-02-28T03:48:11;95050.19;;;5.36;100.00
35989;BME280;22064;42.672;23.282;2024-02-28T03:50:37;95053.09;;;5.40;100.00
35989;BME280;22064;42.672;23.282;2024-02-28T03:53:04;95046.91;;;5.41;100.00
35989;BME280;22064;42.672;23.282;2024-02-28T03:55:31;95044.50;;;5.40;100.00
35989;BME280;22064;42.672;23.282;2024-02-28T03:57:57;95050.88;;;5.77;100.00
35989;BME280;22064;42.672;23.282;2024-02-28T04:00:23;95050.13;;;5.94;100.00
35989;BME280;22064;42.672;23.282;2024-02-28T04:02:51;95051.78;;;6.00;100.00
35989;BME280;22064;42.672;23.282;2024-02-28T04:05:17;95049.00;;;5.90;100.00
35989;BME280;22064;42.672;23.282;2024-02-28T04:07:43;95047.69;;;6.04;100.00
35989;BME280;22064;42.672;23.282;2024-02-28T04:10:09;95044.03;;;6.05;100.00
35989;BME280;22064;42.672;23.282;2024-02-28T04:12:37;95043.00;;;5.72;100.00
35989;BME280;22064;42.672;23.282;2024-02-28T04:15:04;95044.41;;;5.63;100.00
35989;BME280;22064;42.672;23.282;2024-02-28T04:17:30;95052.19;;;5.46;100.00
35989;BME280;22064;42.672;23.282;2024-02-28T04:19:57;95051.53;;;5.10;100.00
35989;BME280;22064;42.672;23.282;2024-02-28T04:22:23;95046.66;;;5.43;100.00
35989;BME280;22064;42.672;23.282;2024-02-28T04:24:49;95046.53;;;5.09;100.00
35989;BME280;22064;42.672;23.282;2024-02-28T04:27:15;95041.72;;;5.01;100.00
35989;BME280;22064;42.672;23.282;2024-02-28T04:29:45;95049.16;;;5.09;100.00
35989;BME280;22064;42.672;23.282;2024-02-28T04:32:11;95035.22;;;5.44;100.00
35989;BME280;22064;42.672;23.282;2024-02-28T04:34:37;95028.34;;;5.38;100.00
35989;BME280;22064;42.672;23.282;2024-02-28T04:37:04;95044.75;;;5.09;100.00
35989;BME280;22064;42.672;23.282;2024-02-28T04:39:30;95045.63;;;5.15;100.00
35989;BME280;22064;42.672;23.282;2024-02-28T04:41:57;95037.63;;;5.33;100.00
35989;BME280;22064;42.672;23.282;2024-02-28T04:44:23;95047.47;;;5.03;100.00
35989;BME280;22064;42.672;23.282;2024-02-28T04:46:52;95039.88;;;5.13;100.00
35989;BME280;22064;42.672;23.282;2024-02-28T04:49:19;95054.75;;;5.29;100.00
35989;BME280;22064;42.672;23.282;2024-02-28T04:51:48;95047.50;;;5.31;100.00
35989;BME280;22064;42.672;23.282;2024-02-28T04:54:14;95053.94;;;5.00;100.00
35989;BME280;22064;42.672;23.282;2024-02-28T04:56:42;95058.59;;;4.75;100.00
35989;BME280;22064;42.672;23.282;2024-02-28T04:59:12;95061.34;;;4.80;100.00
35989;BME280;22064;42.672;23.282;2024-02-28T05:01:41;95053.88;;;4.60;100.00
35989;BME280;22064;42.672;23.282;2024-02-28T05:04:08;95064.63;;;4.52;100.00
35989;BME280;22064;42.672;23.282;2024-02-28T05:06:39;95062.81;;;4.52;100.00
35989;BME280;22064;42.672;23.282;2024-02-28T05:09:05;95059.44;;;4.28;100.00
35989;BME280;22064;42.672;23.282;2024-02-28T05:11:31;95053.09;;;4.01;100.00
35989;BME280;22064;42.672;23.282;2024-02-28T05:13:57;95080.34;;;4.10;100.00
35989;BME280;22064;42.672;23.282;2024-02-28T05:16:26;95075.13;;;4.21;100.00
35989;BME280;22064;42.672;23.282;2024-02-28T05:18:52;95082.69;;;4.11;100.00
35989;BME280;22064;42.672;23.282;2024-02-28T05:21:18;95082.59;;;4.30;100.00
35989;BME280;22064;42.672;23.282;2024-02-28T05:23:45;95088.94;;;4.45;100.00
35989;BME280;22064;42.672;23.282;2024-02-28T05:26:12;95091.09;;;4.25;100.00
35989;BME280;22064;42.672;23.282;2024-02-28T05:28:38;95091.06;;;4.02;100.00
35989;BME280;22064;42.672;23.282;2024-02-28T05:31:25;95096.84;;;4.27;100.00
35989;BME280;22064;42.672;23.282;2024-02-28T05:33:52;95094.47;;;4.61;100.00
35989;BME280;22064;42.672;23.282;2024-02-28T05:36:21;95100.84;;;4.53;100.00
35989;BME280;22064;42.672;23.282;2024-02-28T05:38:48;95106.38;;;4.80;100.00
35989;BME280;22064;42.672;23.282;2024-02-28T05:41:16;95110.13;;;4.84;100.00
35989;BME280;22064;42.672;23.282;2024-02-28T05:43:42;95109.81;;;5.21;100.00
35989;BME280;22064;42.672;23.282;2024-02-28T05:46:08;95114.63;;;4.89;100.00
35989;BME280;22064;42.672;23.282;2024-02-28T05:48:34;95123.34;;;4.95;100.00
35989;BME280;22064;42.672;23.282;2024-02-28T05:51:01;95117.44;;;4.52;100.00
35989;BME280;22064;42.672;23.282;2024-02-28T05:53:27;95121.28;;;4.73;100.00
35989;BME280;22064;42.672;23.282;2024-02-28T05:55:54;95115.22;;;4.79;100.00
35989;BME280;22064;42.672;23.282;2024-02-28T05:58:24;95113.97;;;4.82;100.00
35989;BME280;22064;42.672;23.282;2024-02-28T06:00:51;95125.38;;;4.93;100.00
35989;BME280;22064;42.672;23.282;2024-02-28T06:03:17;95127.06;;;4.75;100.00
35989;BME280;22064;42.672;23.282;2024-02-28T06:05:45;95134.78;;;4.94;100.00
35989;BME280;22064;42.672;23.282;2024-02-28T06:08:14;95134.34;;;5.37;100.00
35989;BME280;22064;42.672;23.282;2024-02-28T06:10:41;95131.81;;;5.54;100.00
35989;BME280;22064;42.672;23.282;2024-02-28T06:13:21;95130.34;;;5.46;100.00
35989;BME280;22064;42.672;23.282;2024-02-28T06:15:52;95143.66;;;5.62;100.00
35989;BME280;22064;42.672;23.282;2024-02-28T06:18:18;95138.53;;;5.78;100.00
35989;BME280;22064;42.672;23.282;2024-02-28T06:20:48;95136.38;;;5.75;100.00
35989;BME280;22064;42.672;23.282;2024-02-28T06:23:17;95141.28;;;5.89;100.00
35989;BME280;22064;42.672;23.282;2024-02-28T06:25:45;95142.75;;;6.13;100.00
35989;BME280;22064;42.672;23.282;2024-02-28T06:28:20;95141.28;;;6.34;100.00
35989;BME280;22064;42.672;23.282;2024-02-28T06:30:54;95133.47;;;6.34;100.00
35989;BME280;22064;42.672;23.282;2024-02-28T06:33:21;95143.28;;;6.61;100.00
35989;BME280;22064;42.672;23.282;2024-02-28T06:35:47;95144.28;;;6.93;100.00
35989;BME280;22064;42.672;23.282;2024-02-28T06:38:19;95140.47;;;7.23;100.00
35989;BME280;22064;42.672;23.282;2024-02-28T06:40:45;95152.13;;;7.59;100.00
35989;BME280;22064;42.672;23.282;2024-02-28T06:43:11;95148.59;;;7.71;100.00
35989;BME280;22064;42.672;23.282;2024-02-28T06:45:38;95147.34;;;8.00;97.20
35989;BME280;22064;42.672;23.282;2024-02-28T06:48:19;95143.84;;;8.17;93.94
35989;BME280;22064;42.672;23.282;2024-02-28T06:53:32;95145.03;;;8.68;87.61
35989;BME280;22064;42.672;23.282;2024-02-28T06:56:06;95146.66;;;8.79;83.23
35989;BME280;22064;42.672;23.282;2024-02-28T06:58:36;95145.66;;;8.86;80.07
35989;BME280;22064;42.672;23.282;2024-02-28T07:01:03;95130.53;;;8.98;79.13
35989;BME280;22064;42.672;23.282;2024-02-28T07:03:32;95152.00;;;8.90;75.95
35989;BME280;22064;42.672;23.282;2024-02-28T07:06:05;95150.97;;;8.26;79.27
35989;BME280;22064;42.672;23.282;2024-02-28T07:08:32;95154.72;;;8.30;79.56
35989;BME280;22064;42.672;23.282;2024-02-28T07:10:59;95152.91;;;8.73;77.83
35989;BME280;22064;42.672;23.282;2024-02-28T07:13:26;95150.63;;;8.82;76.33
35989;BME280;22064;42.672;23.282;2024-02-28T07:15:52;95131.59;;;8.97;74.64
35989;BME280;22064;42.672;23.282;2024-02-28T07:18:24;95139.53;;;9.07;73.40
35989;BME280;22064;42.672;23.282;2024-02-28T07:20:57;95143.59;;;9.35;70.54
35989;BME280;22064;42.672;23.282;2024-02-28T07:23:24;95151.53;;;9.50;68.71
35989;BME280;22064;42.672;23.282;2024-02-28T07:26:03;95137.78;;;9.23;70.06
35989;BME280;22064;42.672;23.282;2024-02-28T07:28:32;95151.81;;;9.59;68.59
35989;BME280;22064;42.672;23.282;2024-02-28T07:31:02;95147.94;;;9.72;67.72
35989;BME280;22064;42.672;23.282;2024-02-28T07:33:30;95138.47;;;9.66;68.12
35989;BME280;22064;42.672;23.282;2024-02-28T07:36:00;95146.16;;;9.98;66.40
35989;BME280;22064;42.672;23.282;2024-02-28T07:38:35;95150.13;;;10.16;65.86
35989;BME280;22064;42.672;23.282;2024-02-28T07:41:04;95145.44;;;10.38;64.34
35989;BME280;22064;42.672;23.282;2024-02-28T07:43:50;95145.97;;;10.30;63.37
35989;BME280;22064;42.672;23.282;2024-02-28T07:46:16;95142.81;;;10.43;64.00
35989;BME280;22064;42.672;23.282;2024-02-28T07:48:44;95140.72;;;10.71;61.57
35989;BME280;22064;42.672;23.282;2024-02-28T07:51:10;95124.69;;;10.67;61.81
35989;BME280;22064;42.672;23.282;2024-02-28T07:53:39;95150.13;;;10.87;60.19
35989;BME280;22064;42.672;23.282;2024-02-28T07:56:21;95144.31;;;11.26;58.70
35989;BME280;22064;42.672;23.282;2024-02-28T07:58:50;95150.94;;;10.98;59.20
35989;BME280;22064;42.672;23.282;2024-02-28T08:01:17;95146.97;;;10.96;59.79
35989;BME280;22064;42.672;23.282;2024-02-28T08:03:44;95144.28;;;11.16;59.41
35989;BME280;22064;42.672;23.282;2024-02-28T08:06:15;95148.00;;;11.15;59.18
35989;BME280;22064;42.672;23.282;2024-02-28T08:08:45;95145.00;;;11.52;56.92
35989;BME280;22064;42.672;23.282;2024-02-28T08:11:17;95140.34;;;11.34;56.53
35989;BME280;22064;42.672;23.282;2024-02-28T08:13:50;95125.69;;;11.72;56.11
35989;BME280;22064;42.672;23.282;2024-02-28T08:16:18;95138.78;;;11.18;55.91
35989;BME280;22064;42.672;23.282;2024-02-28T08:18:45;95139.44;;;11.59;55.72
35989;BME280;22064;42.672;23.282;2024-02-28T08:21:15;95126.75;;;11.76;54.22
35989;BME280;22064;42.672;23.282;2024-02-28T08:23:41;95135.25;;;12.02;53.95
35989;BME280;22064;42.672;23.282;2024-02-28T08:26:12;95139.44;;;12.09;53.15
35989;BME280;22064;42.672;23.282;2024-02-28T08:29:01;95132.13;;;12.45;52.05
35989;BME280;22064;42.672;23.282;2024-02-28T08:31:30;95135.53;;;12.74;51.69
35989;BME280;22064;42.672;23.282;2024-02-28T08:34:17;95112.56;;;12.80;50.63
35989;BME280;22064;42.672;23.282;2024-02-28T08:36:43;95130.81;;;12.71;50.17
35989;BME280;22064;42.672;23.282;2024-02-28T08:39:09;95134.50;;;13.00;49.68
35989;BME280;22064;42.672;23.282;2024-02-28T08:41:45;95129.50;;;13.22;48.91
35989;BME280;22064;42.672;23.282;2024-02-28T08:44:14;95135.63;;;12.64;49.04
35989;BME280;22064;42.672;23.282;2024-02-28T08:46:46;95122.00;;;12.57;49.85
35989;BME280;22064;42.672;23.282;2024-02-28T08:49:14;95124.81;;;11.92;51.14
35989;BME280;22064;42.672;23.282;2024-02-28T08:51:44;95119.31;;;11.84;51.71
35989;BME280;22064;42.672;23.282;2024-02-28T08:54:14;95116.91;;;11.92;51.58
35989;BME280;22064;42.672;23.282;2024-02-28T08:56:41;95116.59;;;11.99;51.65
35989;BME280;22064;42.672;23.282;2024-02-28T08:59:09;95113.81;;;12.19;51.67
35989;BME280;22064;42.672;23.282;2024-02-28T09:01:36;95122.97;;;12.66;50.77
35989;BME280;22064;42.672;23.282;2024-02-28T09:04:05;95120.47;;;12.80;49.74
35989;BME280;22064;42.672;23.282;2024-02-28T09:06:36;95120.28;;;13.01;49.16
35989;BME280;22064;42.672;23.282;2024-02-28T09:09:02;95124.09;;;13.13;48.51
35989;BME280;22064;42.672;23.282;2024-02-28T09:11:30;95125.44;;;13.11;48.49
35989;BME280;22064;42.672;23.282;2024-02-28T09:13:59;95129.94;;;12.81;49.00
35989;BME280;22064;42.672;23.282;2024-02-28T09:16:25;95126.09;;;12.39;50.61
35989;BME280;22064;42.672;23.282;2024-02-28T09:21:53;95123.84;;;12.86;49.45
35989;BME280;22064;42.672;23.282;2024-02-28T09:24:19;95110.53;;;13.25;48.96
35989;BME280;22064;42.672;23.282;2024-02-28T09:26:45;95114.22;;;13.48;48.24
35989;BME280;22064;42.672;23.282;2024-02-28T09:29:12;95112.00;;;13.55;47.79
35989;BME280;22064;42.672;23.282;2024-02-28T09:31:38;95109.84;;;14.00;46.94
35989;BME280;22064;42.672;23.282;2024-02-28T09:34:06;95103.06;;;14.32;45.97
35989;BME280;22064;42.672;23.282;2024-02-28T09:36:43;95092.56;;;13.70;46.35
35989;BME280;22064;42.672;23.282;2024-02-28T09:39:24;95100.03;;;13.44;47.70
35989;BME280;22064;42.672;23.282;2024-02-28T09:41:56;95094.25;;;13.42;48.29
35989;BME280;22064;42.672;23.282;2024-02-28T09:44:23;95096.06;;;14.22;46.31
35989;BME280;22064;42.672;23.282;2024-02-28T09:46:56;95090.78;;;14.55;45.74
35989;BME280;22064;42.672;23.282;2024-02-28T09:49:31;95062.72;;;14.73;44.93
35989;BME280;22064;42.672;23.282;2024-02-28T09:52:01;95085.25;;;14.98;44.47
35989;BME280;22064;42.672;23.282;2024-02-28T09:54:27;95083.81;;;15.33;44.04
35989;BME280;22064;42.672;23.282;2024-02-28T09:56:57;95081.66;;;15.08;43.29
35989;BME280;22064;42.672;23.282;2024-02-28T09:59:25;95083.25;;;15.22;42.93
35989;BME280;22064;42.672;23.282;2024-02-28T10:02:01;95080.88;;;15.35;42.94
35989;BME280;22064;42.672;23.282;2024-02-28T10:04:30;95081.81;;;15.66;41.99
35989;BME280;22064;42.672;23.282;2024-02-28T10:06:56;95074.53;;;15.86;41.70
35989;BME280;22064;42.672;23.282;2024-02-28T10:09:25;95078.22;;;15.99;41.77
35989;BME280;22064;42.672;23.282;2024-02-28T10:12:02;95078.84;;;15.68;41.74
35989;BME280;22064;42.672;23.282;2024-02-28T10:14:28;95078.22;;;15.99;41.62
35989;BME280;22064;42.672;23.282;2024-02-28T10:17:01;95081.78;;;15.94;41.29
35989;BME280;22064;42.672;23.282;2024-02-28T10:19:30;95069.03;;;16.18;41.15
35989;BME280;22064;42.672;23.282;2024-02-28T10:21:57;95069.75;;;16.10;41.14
35989;BME280;22064;42.672;23.282;2024-02-28T10:24:26;95051.31;;;16.28;40.71
35989;BME280;22064;42.672;23.282;2024-02-28T10:26:53;95067.69;;;16.75;40.11
35989;BME280;22064;42.672;23.282;2024-02-28T10:29:24;95055.16;;;15.49;41.36
35989;BME280;22064;42.672;23.282;2024-02-28T10:31:52;95046.84;;;15.92;41.30
35989;BME280;22064;42.672;23.282;2024-02-28T10:34:21;95050.84;;;16.26;40.98
35989;BME280;22064;42.672;23.282;2024-02-28T10:36:49;95052.66;;;16.70;40.27
35989;BME280;22064;42.672;23.282;2024-02-28T10:39:18;95049.56;;;16.68;39.63
35989;BME280;22064;42.672;23.282;2024-02-28T10:41:46;95040.25;;;16.57;39.75
35989;BME280;22064;42.672;23.282;2024-02-28T10:44:16;95039.00;;;16.85;39.82
35989;BME280;22064;42.672;23.282;2024-02-28T10:46:44;95033.31;;;16.70;39.32
35989;BME280;22064;42.672;23.282;2024-02-28T10:49:24;95026.25;;;17.05;39.00
35989;BME280;22064;42.672;23.282;2024-02-28T10:51:52;95033.44;;;17.04;38.60
35989;BME280;22064;42.672;23.282;2024-02-28T10:54:20;95025.63;;;17.08;38.41
35989;BME280;22064;42.672;23.282;2024-02-28T10:56:57;95040.25;;;16.88;38.77
35989;BME280;22064;42.672;23.282;2024-02-28T10:59:29;95035.00;;;16.97;38.56
35989;BME280;22064;42.672;23.282;2024-02-28T11:01:59;95026.59;;;17.03;38.52
35989;BME280;22064;42.672;23.282;2024-02-28T11:04:26;95017.25;;;17.23;38.09
35989;BME280;22064;42.672;23.282;2024-02-28T11:06:56;95019.63;;;17.33;37.41
35989;BME280;22064;42.672;23.282;2024-02-28T11:09:25;95020.31;;;16.91;37.93
35989;BME280;22064;42.672;23.282;2024-02-28T11:11:55;95013.59;;;16.93;38.13
35989;BME280;22064;42.672;23.282;2024-02-28T11:14:23;95015.66;;;16.65;38.40
35989;BME280;22064;42.672;23.282;2024-02-28T11:17:04;95005.06;;;16.42;37.98
35989;BME280;22064;42.672;23.282;2024-02-28T11:19:32;95003.91;;;16.26;38.57
35989;BME280;22064;42.672;23.282;2024-02-28T11:22:04;95005.94;;;16.60;38.22
35989;BME280;22064;42.672;23.282;2024-02-28T11:24:44;94993.59;;;16.96;37.24
35989;BME280;22064;42.672;23.282;2024-02-28T11:27:13;94993.13;;;16.85;37.16
35989;BME280;22064;42.672;23.282;2024-02-28T11:29:40;94989.94;;;17.23;36.79
35989;BME280;22064;42.672;23.282;2024-02-28T11:32:07;94987.16;;;17.45;36.16
35989;BME280;22064;42.672;23.282;2024-02-28T11:34:37;94989.53;;;16.90;37.02
35989;BME280;22064;42.672;23.282;2024-02-28T11:37:05;94994.78;;;17.29;36.29
35989;BME280;22064;42.672;23.282;2024-02-28T11:39:32;94983.22;;;17.25;36.13
35989;BME280;22064;42.672;23.282;2024-02-28T11:42:20;94983.72;;;17.27;35.84
35989;BME280;22064;42.672;23.282;2024-02-28T11:44:56;94983.88;;;17.31;35.76
35989;BME280;22064;42.672;23.282;2024-02-28T11:47:32;94976.25;;;17.47;35.57
35989;BME280;22064;42.672;23.282;2024-02-28T11:50:01;94978.22;;;17.32;35.16
35989;BME280;22064;42.672;23.282;2024-02-28T11:52:37;94976.50;;;17.19;34.85
35989;BME280;22064;42.672;23.282;2024-02-28T11:55:04;94972.59;;;17.17;34.63
35989;BME280;22064;42.672;23.282;2024-02-28T11:57:32;94970.41;;;17.19;34.34
35989;BME280;22064;42.672;23.282;2024-02-28T12:00:22;94964.22;;;17.58;33.83
35989;BME280;22064;42.672;23.282;2024-02-28T12:02:48;94941.97;;;16.93;34.55
35989;BME280;22064;42.672;23.282;2024-02-28T12:05:20;94957.44;;;17.00;34.91
35989;BME280;22064;42.672;23.282;2024-02-28T12:07:46;94959.72;;;16.84;35.18
35989;BME280;22064;42.672;23.282;2024-02-28T12:10:15;94939.50;;;17.23;34.45
35989;BME280;22064;42.672;23.282;2024-02-28T12:12:45;94946.84;;;17.35;34.58
35989;BME280;22064;42.672;23.282;2024-02-28T12:15:15;94940.75;;;17.43;34.38
35989;BME280;22064;42.672;23.282;2024-02-28T12:17:42;94939.50;;;17.05;34.44
35989;BME280;22064;42.672;23.282;2024-02-28T12:20:09;94933.84;;;16.98;34.29
35989;BME280;22064;42.672;23.282;2024-02-28T12:22:35;94939.38;;;17.37;34.11
35989;BME280;22064;42.672;23.282;2024-02-28T12:25:09;94936.38;;;17.29;34.39
35989;BME280;22064;42.672;23.282;2024-02-28T12:27:35;94930.13;;;17.17;34.82
35989;BME280;22064;42.672;23.282;2024-02-28T12:30:06;94923.38;;;17.02;34.91
35989;BME280;22064;42.672;23.282;2024-02-28T12:32:56;94933.56;;;16.60;34.83
35989;BME280;22064;42.672;23.282;2024-02-28T12:35:23;94932.06;;;16.76;34.78
35989;BME280;22064;42.672;23.282;2024-02-28T12:37:50;94920.56;;;16.90;34.21
35989;BME280;22064;42.672;23.282;2024-02-28T12:40:18;94932.00;;;17.25;33.80
35989;BME280;22064;42.672;23.282;2024-02-28T12:42:47;94927.81;;;17.67;33.44
35989;BME280;22064;42.672;23.282;2024-02-28T12:45:14;94914.97;;;17.87;32.83
35989;BME280;22064;42.672;23.282;2024-02-28T12:47:50;94926.81;;;17.89;32.75
35989;BME280;22064;42.672;23.282;2024-02-28T12:50:22;94923.50;;;18.10;32.26
35989;BME280;22064;42.672;23.282;2024-02-28T12:52:50;94925.53;;;18.21;32.15
35989;BME280;22064;42.672;23.282;2024-02-28T12:55:22;94895.88;;;18.02;32.20
35989;BME280;22064;42.672;23.282;2024-02-28T12:57:48;94920.38;;;18.08;32.38
35989;BME280;22064;42.672;23.282;2024-02-28T13:00:36;94928.72;;;17.89;33.24
35989;BME280;22064;42.672;23.282;2024-02-28T13:03:21;94914.28;;;18.16;33.47
35989;BME280;22064;42.672;23.282;2024-02-28T13:05:48;94912.91;;;17.92;33.61